Time;durP1;ratioP1;P1;durP2;ratioP2;P2;SDS_P1;SDS_P2;PMS_P1;PMS_P2;Temp;Humidity;BMP_temperature;BMP_pressure;BME280_temperature;BME280_humidity;BME280_pressure;Samples;Min_cycle;Max_cycle;Signal;HPM_P1;HPM_P2
2023/07/19 00:01:23;;;;;;;5.15;2.33;;;22.20;90.30;;;;;;5034313;28;20025;-52
2023/07/19 00:03:48;;;;;;;5.60;2.65;;;22.10;90.10;;;;;;5034328;28;20048;-51
2023/07/19 00:06:14;;;;;;;11.98;4.63;;;22.00;90.50;;;;;;5033890;28;20061;-54
2023/07/19 00:08:39;;;;;;;3.28;2.30;;;21.90;90.70;;;;;;5033881;28;20028;-52
2023/07/19 00:11:05;;;;;;;4.25;2.65;;;21.90;91.00;;;;;;5034306;28;20075;-53
2023/07/19 00:13:30;;;;;;;5.15;2.92;;;21.90;91.20;;;;;;5034015;28;20117;-51
2023/07/19 00:15:56;;;;;;;7.05;2.50;;;21.80;91.30;;;;;;5033955;28;20029;-51
2023/07/19 00:18:22;;;;;;;3.13;2.40;;;21.80;91.60;;;;;;5033735;28;20059;-55
2023/07/19 00:20:47;;;;;;;4.43;2.80;;;21.80;92.30;;;;;;5033663;28;20496;-54
2023/07/19 00:23:13;;;;;;;4.45;2.45;;;21.70;92.60;;;;;;5033858;28;20059;-52
2023/07/19 00:25:38;;;;;;;7.13;2.92;;;21.70;92.90;;;;;;5034272;28;20030;-53
2023/07/19 00:28:04;;;;;;;5.18;3.22;;;21.70;92.90;;;;;;5033889;28;20060;-53
2023/07/19 00:30:29;;;;;;;6.10;2.80;;;21.70;93.10;;;;;;5034294;28;20559;-54
2023/07/19 00:32:55;;;;;;;5.78;2.70;;;21.70;93.10;;;;;;5033703;28;20040;-50
2023/07/19 00:35:20;;;;;;;6.03;2.72;;;21.80;93.30;;;;;;5033534;28;20026;-50
2023/07/19 00:37:46;;;;;;;6.38;2.88;;;21.70;93.20;;;;;;5033232;28;20030;-50
2023/07/19 00:40:11;;;;;;;2.88;2.58;;;21.70;93.40;;;;;;5033567;28;20033;-55
2023/07/19 00:42:37;;;;;;;5.53;3.00;;;21.70;93.60;;;;;;5033499;28;20022;-53
2023/07/19 00:45:04;;;;;;;6.20;2.90;;;21.70;93.50;;;;;;5033555;28;20480;-53
2023/07/19 00:47:30;;;;;;;6.78;3.00;;;21.60;94.20;;;;;;5033099;28;20026;-53
2023/07/19 00:49:55;;;;;;;6.20;3.00;;;21.60;94.10;;;;;;5033297;28;20090;-52
2023/07/19 00:52:21;;;;;;;7.20;2.78;;;21.60;94.00;;;;;;5033406;28;20029;-50
2023/07/19 00:54:47;;;;;;;6.68;2.90;;;21.50;94.10;;;;;;5033294;28;20021;-54
2023/07/19 00:57:12;;;;;;;4.65;3.35;;;21.50;94.50;;;;;;5033063;28;20461;-51
2023/07/19 00:59:40;;;;;;;6.72;4.07;;;21.50;94.20;;;;;;5032878;28;20083;-55
2023/07/19 01:02:06;;;;;;;10.82;4.70;;;21.40;94.50;;;;;;5033231;28;20036;-54
2023/07/19 01:04:33;;;;;;;7.72;2.90;;;21.40;94.90;;;;;;5033126;28;20026;-54
2023/07/19 01:06:58;;;;;;;16.38;2.92;;;21.40;95.20;;;;;;5032633;28;20025;-55
2023/07/19 01:09:26;;;;;;;6.93;2.80;;;21.40;95.60;;;;;;5032885;28;20032;-54
2023/07/19 01:11:51;;;;;;;9.95;2.85;;;21.30;96.20;;;;;;5033022;28;20392;-51
2023/07/19 01:14:17;;;;;;;8.93;3.72;;;21.30;96.30;;;;;;5032873;28;20030;-53
2023/07/19 01:16:42;;;;;;;7.38;3.47;;;21.20;96.90;;;;;;5032290;28;20029;-52
2023/07/19 01:19:09;;;;;;;4.78;3.15;;;21.20;97.10;;;;;;5032943;28;20172;-54
2023/07/19 01:21:35;;;;;;;6.30;2.55;;;21.10;97.20;;;;;;5032833;28;20255;-51
2023/07/19 01:24:00;;;;;;;7.97;3.03;;;21.10;97.20;;;;;;5032825;28;20101;-54
2023/07/19 01:26:26;;;;;;;5.75;3.20;;;21.10;98.10;;;;;;5032639;28;20056;-54
2023/07/19 01:28:55;;;;;;;4.53;3.08;;;21.10;97.50;;;;;;5032589;28;20034;-53
2023/07/19 01:31:21;;;;;;;6.07;2.90;;;21.00;97.30;;;;;;5032611;28;20022;-56
2023/07/19 01:33:47;;;;;;;8.43;3.05;;;21.10;97.10;;;;;;5032447;28;20108;-51
2023/07/19 01:36:12;;;;;;;5.75;3.03;;;21.10;97.60;;;;;;5032226;28;20453;-52
2023/07/19 01:38:38;;;;;;;7.80;2.70;;;21.10;98.10;;;;;;5032567;28;20037;-56
2023/07/19 01:41:05;;;;;;;7.20;3.30;;;21.10;98.30;;;;;;5032344;28;20447;-53
2023/07/19 01:43:30;;;;;;;7.55;3.30;;;21.10;96.80;;;;;;5032425;28;20108;-52
2023/07/19 01:45:57;;;;;;;5.03;3.03;;;21.10;96.60;;;;;;5032128;28;20569;-54
2023/07/19 01:48:23;;;;;;;9.50;3.38;;;21.10;96.90;;;;;;5031991;28;20447;-54
2023/07/19 01:50:48;;;;;;;6.07;3.50;;;21.00;97.40;;;;;;5032179;28;20036;-53
2023/07/19 01:53:14;;;;;;;3.45;3.15;;;20.90;98.40;;;;;;5032240;28;20453;-51
2023/07/19 01:55:41;;;;;;;6.70;2.80;;;20.90;98.90;;;;;;5032338;28;20412;-54
2023/07/19 01:58:08;;;;;;;6.60;2.88;;;20.90;99.40;;;;;;5031721;28;20022;-53
2023/07/19 02:00:34;;;;;;;13.60;3.38;;;20.80;99.30;;;;;;5031907;28;20377;-53
2023/07/19 02:03:00;;;;;;;4.40;3.03;;;20.70;99.60;;;;;;5031977;28;20033;-51
2023/07/19 02:05:26;;;;;;;5.88;3.28;;;20.70;99.90;;;;;;5031894;28;20024;-53
2023/07/19 02:07:51;;;;;;;5.70;3.03;;;20.70;99.90;;;;;;5032051;28;20396;-55
2023/07/19 02:10:17;;;;;;;9.43;3.30;;;20.50;99.90;;;;;;5030851;28;20036;-54
2023/07/19 02:12:43;;;;;;;7.13;3.35;;;20.40;99.90;;;;;;5031818;28;20021;-54
2023/07/19 02:15:09;;;;;;;5.65;3.03;;;20.30;99.90;;;;;;5031750;28;20591;-51
2023/07/19 02:17:34;;;;;;;10.48;2.70;;;20.20;99.90;;;;;;5031403;28;20412;-51
2023/07/19 02:19:59;;;;;;;5.13;2.67;;;20.20;99.90;;;;;;5031890;28;20053;-52
2023/07/19 02:22:25;;;;;;;6.72;2.65;;;20.10;99.90;;;;;;5031686;28;20473;-55
2023/07/19 02:24:51;;;;;;;7.63;3.05;;;20.10;99.90;;;;;;5031482;28;20021;-53
2023/07/19 02:27:16;;;;;;;5.90;3.10;;;20.10;99.90;;;;;;5031307;28;20451;-53
2023/07/19 02:29:42;;;;;;;3.20;2.90;;;20.00;99.90;;;;;;5031706;28;20064;-55
2023/07/19 02:32:07;;;;;;;3.33;3.03;;;19.90;99.90;;;;;;5031546;28;20037;-57
2023/07/19 02:34:33;;;;;;;9.57;2.72;;;19.70;99.90;;;;;;5031414;28;20028;-55
2023/07/19 02:36:58;;;;;;;7.63;4.38;;;19.60;99.90;;;;;;5031094;28;20039;-50
2023/07/19 02:39:29;;;;;;;10.45;3.85;;;19.60;99.90;;;;;;5031360;28;20026;-54
2023/07/19 02:41:55;;;;;;;9.18;3.28;;;19.50;99.90;;;;;;5031522;28;20526;-56
2023/07/19 02:44:21;;;;;;;6.22;3.42;;;19.50;99.90;;;;;;5031446;28;20200;-54
2023/07/19 02:46:46;;;;;;;7.50;3.20;;;19.50;99.90;;;;;;5031070;28;20030;-55
2023/07/19 02:49:12;;;;;;;9.90;3.53;;;19.50;99.90;;;;;;5031356;28;20045;-51
2023/07/19 02:51:38;;;;;;;6.90;2.83;;;19.40;99.90;;;;;;5031373;28;20025;-51
2023/07/19 02:54:03;;;;;;;6.72;3.60;;;19.40;99.90;;;;;;5031303;28;20032;-51
2023/07/19 02:56:29;;;;;;;7.97;3.30;;;19.40;99.90;;;;;;5030960;28;20029;-55
2023/07/19 02:58:54;;;;;;;7.55;3.28;;;19.50;99.90;;;;;;5031339;28;20083;-54
2023/07/19 03:01:20;;;;;;;5.93;3.10;;;19.40;99.90;;;;;;5031234;28;20079;-54
2023/07/19 03:03:45;;;;;;;9.88;3.33;;;19.50;99.90;;;;;;5031200;28;20018;-52
2023/07/19 03:06:11;;;;;;;5.68;3.60;;;19.50;99.90;;;;;;5030982;28;20038;-52
2023/07/19 03:08:37;;;;;;;9.10;3.97;;;19.50;99.90;;;;;;5030840;28;20029;-54
2023/07/19 03:11:03;;;;;;;7.55;3.40;;;19.50;99.90;;;;;;5031157;28;20022;-55
2023/07/19 03:13:29;;;;;;;10.10;3.63;;;19.50;99.90;;;;;;5031212;28;20087;-54
2023/07/19 03:15:54;;;;;;;12.20;3.33;;;19.40;99.90;;;;;;5031018;28;20488;-52
2023/07/19 03:18:20;;;;;;;7.53;3.38;;;19.50;99.90;;;;;;5030831;28;20033;-55
2023/07/19 03:20:45;;;;;;;5.22;3.25;;;19.50;99.90;;;;;;5029587;28;20087;-53
2023/07/19 03:23:11;;;;;;;6.32;3.45;;;19.50;99.90;;;;;;5034855;28;20053;-54
2023/07/19 03:25:36;;;;;;;6.90;3.05;;;19.50;99.90;;;;;;5034906;28;20036;-50
2023/07/19 03:28:02;;;;;;;8.35;3.50;;;19.50;99.90;;;;;;5034509;28;20032;-52
2023/07/19 03:30:28;;;;;;;5.22;3.45;;;19.50;99.90;;;;;;5034843;28;20017;-53
2023/07/19 03:32:53;;;;;;;7.38;3.25;;;19.50;99.90;;;;;;5034712;28;20022;-56
2023/07/19 03:35:19;;;;;;;8.43;3.17;;;19.60;99.90;;;;;;5034590;28;20393;-51
2023/07/19 03:37:45;;;;;;;12.63;3.45;;;19.60;99.90;;;;;;5033123;28;20049;-50
2023/07/19 03:40:14;;;;;;;9.00;3.10;;;19.60;99.90;;;;;;5034706;28;20028;-50
2023/07/19 03:42:40;;;;;;;7.05;3.70;;;19.70;99.90;;;;;;5034629;28;20168;-49
2023/07/19 03:45:07;;;;;;;6.68;3.05;;;19.70;99.90;;;;;;5034558;28;20100;-51
2023/07/19 03:47:33;;;;;;;8.02;3.10;;;19.70;99.90;;;;;;5034342;28;20523;-57
2023/07/19 03:49:59;;;;;;;9.48;4.32;;;19.70;99.90;;;;;;5034330;28;20030;-49
2023/07/19 03:52:24;;;;;;;6.82;3.22;;;19.60;99.90;;;;;;5034376;28;20032;-50
2023/07/19 03:54:50;;;;;;;6.07;4.28;;;19.60;99.90;;;;;;5034343;28;20026;-50
2023/07/19 03:57:16;;;;;;;8.25;3.47;;;19.60;99.90;;;;;;5033905;28;20029;-52
2023/07/19 03:59:42;;;;;;;4.38;3.00;;;19.60;99.90;;;;;;5034219;28;20037;-49
2023/07/19 04:02:08;;;;;;;8.63;3.30;;;19.60;99.90;;;;;;5034274;28;20362;-54
2023/07/19 04:04:33;;;;;;;4.43;3.38;;;19.50;99.90;;;;;;5034456;28;20025;-52
2023/07/19 04:06:59;;;;;;;5.38;3.20;;;19.50;99.90;;;;;;5034204;28;20033;-51
2023/07/19 04:09:24;;;;;;;5.45;2.85;;;19.40;99.90;;;;;;5034257;28;20068;-52
2023/07/19 04:11:50;;;;;;;4.90;3.47;;;19.30;99.90;;;;;;5034267;28;20036;-53
2023/07/19 04:14:15;;;;;;;8.60;4.13;;;19.20;99.90;;;;;;5034144;28;20022;-52
2023/07/19 04:16:41;;;;;;;7.95;3.90;;;19.10;99.90;;;;;;5033704;28;20038;-50
2023/07/19 04:19:07;;;;;;;5.18;3.50;;;19.00;99.90;;;;;;5034103;28;20022;-54
2023/07/19 04:21:32;;;;;;;8.18;3.60;;;19.00;99.90;;;;;;5034119;28;20383;-56
2023/07/19 04:23:58;;;;;;;7.32;3.30;;;19.00;99.90;;;;;;5034354;28;20075;-56
2023/07/19 04:26:23;;;;;;;6.43;3.42;;;19.00;99.90;;;;;;5033935;28;20048;-53
2023/07/19 04:28:49;;;;;;;5.18;3.38;;;19.00;99.90;;;;;;5033871;28;20036;-53
2023/07/19 04:31:14;;;;;;;6.75;3.90;;;19.10;99.90;;;;;;5033567;28;20026;-53
2023/07/19 04:33:40;;;;;;;10.38;3.90;;;19.20;99.90;;;;;;5033111;28;20029;-54
2023/07/19 04:36:13;;;;;;;9.48;3.97;;;19.20;99.90;;;;;;5033232;28;20061;-51
2023/07/19 04:38:39;;;;;;;11.52;3.88;;;19.30;99.90;;;;;;5033325;28;20033;-48
2023/07/19 04:41:05;;;;;;;4.50;3.55;;;19.30;99.90;;;;;;5033379;28;20041;-53
2023/07/19 04:43:31;;;;;;;6.10;2.92;;;19.30;99.90;;;;;;5033369;28;20034;-56
2023/07/19 04:45:56;;;;;;;7.68;3.30;;;19.40;99.90;;;;;;5033242;28;20025;-56
2023/07/19 04:48:22;;;;;;;6.78;3.67;;;19.50;99.90;;;;;;5032929;28;20053;-55
2023/07/19 04:50:53;;;;;;;7.50;3.55;;;19.60;99.90;;;;;;5033209;28;20318;-51
2023/07/19 04:53:19;;;;;;;6.30;3.50;;;19.70;99.90;;;;;;5031915;28;20181;-49
2023/07/19 04:55:44;;;;;;;7.95;3.60;;;19.80;99.90;;;;;;5033088;28;20281;-52
2023/07/19 04:58:10;;;;;;;6.25;3.05;;;20.10;99.90;;;;;;5032931;28;20025;-51
2023/07/19 05:00:35;;;;;;;8.02;3.20;;;20.40;99.90;;;;;;5033628;28;20033;-49
2023/07/19 05:03:01;;;;;;;12.95;3.17;;;20.70;99.90;;;;;;5032033;28;20025;-51
2023/07/19 05:05:26;;;;;;;9.68;3.58;;;21.20;99.90;;;;;;5031714;28;20486;-49
2023/07/19 05:07:52;;;;;;;3.80;2.70;;;21.80;99.90;;;;;;5031595;28;20044;-52
2023/07/19 05:10:17;;;;;;;4.50;3.15;;;22.60;99.90;;;;;;5033288;28;20372;-53
2023/07/19 05:12:43;;;;;;;6.65;3.58;;;23.50;99.60;;;;;;5032764;28;20033;-55
2023/07/19 05:15:09;;;;;;;6.45;2.85;;;24.10;98.30;;;;;;5032724;28;20025;-52
2023/07/19 05:17:34;;;;;;;7.95;3.38;;;24.80;97.60;;;;;;5032182;28;20029;-54
2023/07/19 05:20:00;;;;;;;8.45;3.28;;;25.30;96.70;;;;;;5032764;28;20037;-54
2023/07/19 05:22:26;;;;;;;9.77;3.38;;;25.80;95.10;;;;;;5032732;28;20440;-54
2023/07/19 05:24:51;;;;;;;6.88;3.30;;;26.00;94.60;;;;;;5032462;28;20049;-52
2023/07/19 05:27:17;;;;;;;4.28;2.35;;;26.50;93.90;;;;;;5032073;28;20079;-51
2023/07/19 05:29:43;;;;;;;9.48;3.05;;;26.90;93.40;;;;;;5032421;28;20100;-53
2023/07/19 05:32:09;;;;;;;16.23;3.67;;;27.50;92.40;;;;;;5030923;28;20021;-50
2023/07/19 05:34:34;;;;;;;6.65;2.72;;;27.90;92.00;;;;;;5032188;28;20048;-52
2023/07/19 05:37:00;;;;;;;7.85;2.55;;;28.50;91.00;;;;;;5031974;28;20396;-53
2023/07/19 05:39:25;;;;;;;8.82;2.92;;;28.90;90.00;;;;;;5032163;28;20033;-52
2023/07/19 05:41:51;;;;;;;5.07;2.75;;;29.30;88.30;;;;;;5032242;28;20024;-51
2023/07/19 05:44:16;;;;;;;5.70;3.10;;;29.50;86.70;;;;;;5031714;28;20108;-55
2023/07/19 05:46:42;;;;;;;4.63;2.70;;;30.00;86.50;;;;;;5031278;28;20427;-50
2023/07/19 05:49:08;;;;;;;8.68;2.90;;;30.20;84.40;;;;;;5032110;28;20172;-54
2023/07/19 05:51:33;;;;;;;3.90;2.40;;;30.40;82.40;;;;;;5031998;28;20041;-52
2023/07/19 05:53:59;;;;;;;5.10;3.10;;;30.70;82.80;;;;;;5031861;28;20037;-57
2023/07/19 05:56:24;;;;;;;10.07;2.67;;;31.10;81.60;;;;;;5031481;28;20033;-52
2023/07/19 05:58:51;;;;;;;7.55;2.40;;;31.40;78.70;;;;;;5031958;28;20022;-55
2023/07/19 06:01:17;;;;;;;7.22;2.42;;;31.80;76.70;;;;;;5030671;28;20022;-51
2023/07/19 06:03:44;;;;;;;9.63;2.42;;;31.80;77.00;;;;;;5031881;28;20027;-53
2023/07/19 06:06:09;;;;;;;5.53;2.30;;;32.30;75.40;;;;;;5031699;28;20061;-54
2023/07/19 06:08:37;;;;;;;3.22;2.28;;;32.70;73.50;;;;;;5031503;28;20053;-53
2023/07/19 06:11:02;;;;;;;4.95;2.60;;;32.40;74.10;;;;;;5031995;28;20052;-51
2023/07/19 06:13:28;;;;;;;4.65;2.45;;;32.40;74.20;;;;;;5031796;28;20025;-54
2023/07/19 06:15:54;;;;;;;10.05;2.67;;;32.20;74.60;;;;;;5031592;28;20029;-54
2023/07/19 06:18:19;;;;;;;5.55;2.20;;;32.00;75.30;;;;;;5031655;28;20528;-54
2023/07/19 06:20:45;;;;;;;3.38;2.15;;;32.40;74.30;;;;;;5031586;28;20083;-52
2023/07/19 06:23:10;;;;;;;9.98;2.17;;;32.80;71.60;;;;;;5031639;28;20447;-53
2023/07/19 06:25:36;;;;;;;6.72;2.25;;;32.90;71.90;;;;;;5031540;28;20040;-55
2023/07/19 06:28:02;;;;;;;4.70;2.42;;;33.20;70.80;;;;;;5031254;28;20063;-51
2023/07/19 06:30:28;;;;;;;7.10;2.50;;;33.10;70.40;;;;;;5032011;28;20044;-50
2023/07/19 06:32:54;;;;;;;2.22;2.00;;;33.10;70.10;;;;;;5031586;28;20477;-50
2023/07/19 06:35:19;;;;;;;4.03;2.38;;;33.10;69.50;;;;;;5031350;28;20498;-55
2023/07/19 06:37:44;;;;;;;4.35;2.33;;;33.80;67.60;;;;;;5031168;28;20076;-51
2023/07/19 06:40:10;;;;;;;8.02;3.08;;;34.10;67.30;;;;;;5031483;28;20108;-56
2023/07/19 06:42:36;;;;;;;4.35;2.40;;;34.30;67.40;;;;;;5031468;28;20238;-55
2023/07/19 06:45:03;;;;;;;6.03;2.28;;;34.60;66.90;;;;;;5031359;28;20071;-56
2023/07/19 06:47:29;;;;;;;5.55;2.63;;;34.30;66.50;;;;;;5031030;28;20026;-52
2023/07/19 06:49:56;;;;;;;3.88;2.30;;;34.30;66.80;;;;;;5031265;28;20025;-53
2023/07/19 06:52:23;;;;;;;4.75;2.25;;;34.50;66.10;;;;;;5031254;28;20496;-53
2023/07/19 06:54:48;;;;;;;4.93;2.70;;;35.10;65.00;;;;;;5031308;28;20029;-55
2023/07/19 06:57:14;;;;;;;3.25;2.10;;;35.50;63.80;;;;;;5033260;28;20032;-52
2023/07/19 06:59:39;;;;;;;6.00;2.30;;;35.70;63.10;;;;;;5035357;28;20018;-53
2023/07/19 07:02:05;;;;;;;8.38;2.42;;;35.50;63.50;;;;;;5035353;28;20104;-56
2023/07/19 07:04:31;;;;;;;3.40;2.20;;;35.40;63.30;;;;;;5035106;28;20400;-54
2023/07/19 07:06:56;;;;;;;5.18;1.90;;;35.50;63.10;;;;;;5034790;28;20025;-54
2023/07/19 07:09:22;;;;;;;4.43;2.08;;;35.80;61.90;;;;;;5034925;28;20033;-54
2023/07/19 07:11:47;;;;;;;3.20;2.17;;;35.80;62.00;;;;;;5035203;28;20029;-56
2023/07/19 07:14:13;;;;;;;4.72;2.38;;;35.90;62.10;;;;;;5034953;28;20080;-51
2023/07/19 07:16:39;;;;;;;6.85;2.30;;;35.50;62.70;;;;;;5034533;28;20508;-56
2023/07/19 07:19:04;;;;;;;6.60;2.63;;;35.60;62.50;;;;;;5035105;28;20397;-53
2023/07/19 07:21:31;;;;;;;9.77;2.40;;;35.70;63.20;;;;;;5035049;28;20021;-52
2023/07/19 07:23:56;;;;;;;4.18;2.00;;;35.90;61.80;;;;;;5034981;28;20028;-53
2023/07/19 07:26:22;;;;;;;5.03;2.20;;;35.80;61.90;;;;;;5034620;28;20029;-55
2023/07/19 07:28:47;;;;;;;7.63;2.42;;;36.00;61.30;;;;;;5034852;28;20108;-52
2023/07/19 07:31:13;;;;;;;5.43;2.60;;;35.80;62.40;;;;;;5034746;28;20107;-55
2023/07/19 07:33:39;;;;;;;4.38;2.50;;;36.10;60.70;;;;;;5034761;28;20544;-56
2023/07/19 07:36:04;;;;;;;5.55;2.25;;;35.90;60.90;;;;;;5034433;28;20029;-55
2023/07/19 07:38:30;;;;;;;6.88;1.90;;;36.50;59.30;;;;;;5034525;28;20037;-55
2023/07/19 07:41:06;;;;;;;3.10;1.70;;;36.20;59.60;;;;;;5034732;28;20029;-52
2023/07/19 07:43:32;;;;;;;6.35;2.53;;;36.00;60.50;;;;;;5034568;28;20022;-56
2023/07/19 07:45:58;;;;;;;3.90;2.15;;;36.50;59.60;;;;;;5034535;28;20072;-54
2023/07/19 07:48:24;;;;;;;3.30;2.08;;;36.30;59.00;;;;;;5034268;28;20477;-55
2023/07/19 07:50:51;;;;;;;2.80;1.77;;;36.40;59.10;;;;;;5034536;28;20405;-51
2023/07/19 07:53:20;;;;;;;2.13;1.90;;;36.90;58.80;;;;;;5034476;28;20030;-54
2023/07/19 07:55:46;;;;;;;3.20;1.77;;;37.10;57.50;;;;;;5034297;28;20032;-56
2023/07/19 07:58:12;;;;;;;3.50;2.15;;;37.00;57.70;;;;;;5033914;28;20025;-56
2023/07/19 08:00:38;;;;;;;6.47;2.17;;;37.20;57.50;;;;;;5034244;28;20029;-53
2023/07/19 08:03:04;;;;;;;7.28;2.20;;;37.50;57.20;;;;;;5034224;28;20085;-52
2023/07/19 08:05:31;;;;;;;2.17;1.85;;;36.90;57.40;;;;;;5034175;28;20441;-54
2023/07/19 08:07:57;;;;;;;8.35;2.75;;;37.10;57.80;;;;;;5032629;28;20473;-53
2023/07/19 08:10:23;;;;;;;3.50;2.28;;;37.30;57.40;;;;;;5033705;28;20037;-53
2023/07/19 08:12:48;;;;;;;16.35;2.28;;;37.80;56.90;;;;;;5034019;28;20029;-54
2023/07/19 08:15:14;;;;;;;15.70;2.53;;;38.20;56.70;;;;;;5034136;28;20097;-56
2023/07/19 08:17:39;;;;;;;5.18;1.80;;;37.40;57.70;;;;;;5033731;28;20558;-54
2023/07/19 08:20:09;;;;;;;2.65;2.00;;;37.80;57.10;;;;;;5033997;28;20512;-54
2023/07/19 08:22:35;;;;;;;5.07;1.83;;;38.10;56.30;;;;;;5033917;28;20018;-55
2023/07/19 08:25:01;;;;;;;2.95;2.00;;;37.80;56.40;;;;;;5033784;28;20017;-56
2023/07/19 08:27:26;;;;;;;2.90;2.00;;;37.50;56.60;;;;;;5033479;28;20021;-55
2023/07/19 08:29:52;;;;;;;3.70;1.92;;;37.50;56.60;;;;;;5033915;28;20501;-55
2023/07/19 08:32:18;;;;;;;2.05;1.88;;;37.40;56.90;;;;;;5033819;28;20067;-54
2023/07/19 08:34:44;;;;;;;3.38;2.03;;;37.00;56.40;;;;;;5033834;28;20029;-52
2023/07/19 08:37:10;;;;;;;2.50;1.90;;;36.60;56.90;;;;;;5033353;28;20031;-54
2023/07/19 08:39:35;;;;;;;4.35;2.22;;;36.10;57.60;;;;;;5033735;28;20048;-53
2023/07/19 08:42:02;;;;;;;6.00;2.33;;;35.90;57.70;;;;;;5033436;28;20029;-56
2023/07/19 08:44:28;;;;;;;4.30;2.28;;;35.50;58.60;;;;;;5033521;28;20037;-53
2023/07/19 08:46:55;;;;;;;4.82;1.80;;;35.20;58.60;;;;;;5033117;28;20030;-55
2023/07/19 08:49:21;;;;;;;9.77;2.75;;;34.90;58.70;;;;;;5033357;28;20072;-54
2023/07/19 08:51:47;;;;;;;2.25;2.05;;;34.60;59.50;;;;;;5033363;28;20029;-54
2023/07/19 08:54:13;;;;;;;9.35;2.10;;;34.40;60.40;;;;;;5033124;28;20044;-55
2023/07/19 08:56:40;;;;;;;4.88;2.22;;;34.30;60.60;;;;;;5032803;28;20045;-54
2023/07/19 08:59:06;;;;;;;6.28;2.33;;;34.10;61.20;;;;;;5033227;28;20540;-55
2023/07/19 09:01:33;;;;;;;3.08;2.08;;;33.60;60.90;;;;;;5033220;28;20396;-54
2023/07/19 09:03:58;;;;;;;6.40;2.35;;;33.00;62.20;;;;;;5033345;28;20029;-56
2023/07/19 09:06:27;;;;;;;4.82;2.20;;;32.80;62.00;;;;;;5032867;28;20028;-54
2023/07/19 09:08:54;;;;;;;5.18;2.50;;;32.90;62.40;;;;;;5032797;28;20510;-52
2023/07/19 09:11:21;;;;;;;8.35;2.30;;;32.90;63.00;;;;;;5033108;28;20031;-52
2023/07/19 09:13:54;;;;;;;6.93;2.17;;;32.40;62.30;;;;;;5033190;28;20466;-54
2023/07/19 09:16:30;;;;;;;4.30;1.90;;;32.00;62.70;;;;;;5032447;28;20039;-53
2023/07/19 09:19:00;;;;;;;6.38;2.30;;;32.30;63.60;;;;;;5032511;28;20447;-51
2023/07/19 09:21:38;;;;;;;4.50;1.90;;;32.50;63.70;;;;;;5032781;28;20017;-55
2023/07/19 09:24:08;;;;;;;4.18;2.20;;;32.50;63.40;;;;;;5032730;28;20021;-55
2023/07/19 09:26:55;;;;;;;7.40;2.20;;;32.50;63.00;;;;;;5032338;28;20039;-51
2023/07/19 09:29:22;;;;;;;3.47;1.88;;;32.80;62.70;;;;;;5032632;28;20025;-55
2023/07/19 09:31:55;;;;;;;3.53;2.13;;;32.90;63.20;;;;;;5032690;28;20033;-55
2023/07/19 09:34:26;;;;;;;3.20;2.10;;;32.90;62.60;;;;;;5032508;28;20033;-54
2023/07/19 09:36:55;;;;;;;26.05;2.78;;;32.90;62.50;;;;;;5032047;28;20030;-55
2023/07/19 09:39:22;;;;;;;6.43;2.22;;;32.70;62.40;;;;;;5032460;28;20296;-55
2023/07/19 09:41:48;;;;;;;8.73;3.03;;;32.70;62.80;;;;;;5032347;28;20017;-55
2023/07/19 09:44:17;;;;;;;5.32;2.13;;;32.50;61.60;;;;;;5032340;28;20096;-54
2023/07/19 09:46:44;;;;;;;6.03;2.13;;;32.30;62.20;;;;;;5031939;28;20021;-56
2023/07/19 09:49:10;;;;;;;4.32;2.30;;;32.40;62.10;;;;;;5032416;28;20035;-53
2023/07/19 09:51:40;;;;;;;7.55;2.65;;;32.30;61.50;;;;;;5032242;28;20041;-55
2023/07/19 09:54:09;;;;;;;19.70;2.70;;;32.10;62.10;;;;;;5031102;28;20021;-55
2023/07/19 09:56:35;;;;;;;4.90;2.00;;;31.80;62.50;;;;;;5032298;28;20056;-55
2023/07/19 09:59:01;;;;;;;4.05;2.28;;;31.80;62.80;;;;;;5032452;28;20528;-56
2023/07/19 10:01:27;;;;;;;14.63;2.33;;;31.80;63.40;;;;;;5032141;28;20022;-55
2023/07/19 10:03:52;;;;;;;4.68;2.20;;;31.40;62.80;;;;;;5032030;28;20028;-52
2023/07/19 10:06:18;;;;;;;9.30;2.08;;;31.30;63.00;;;;;;5031847;28;20033;-54
2023/07/19 10:08:43;;;;;;;7.40;2.28;;;31.20;63.60;;;;;;5031518;28;20493;-53
2023/07/19 10:11:21;;;;;;;6.15;1.92;;;31.10;63.10;;;;;;5031770;28;20064;-55
2023/07/19 10:13:56;;;;;;;5.90;1.80;;;30.70;63.20;;;;;;5031705;28;20045;-53
2023/07/19 10:16:24;;;;;;;7.60;1.98;;;30.40;63.20;;;;;;5031277;28;20041;-55
2023/07/19 10:19:12;;;;;;;3.35;1.88;;;30.20;63.90;;;;;;5031642;28;20040;-51
2023/07/19 10:21:38;;;;;;;6.47;2.00;;;30.00;64.70;;;;;;5031807;28;20029;-57
2023/07/19 10:24:06;;;;;;;3.05;2.15;;;29.80;65.00;;;;;;5031725;28;20021;-54
2023/07/19 10:26:36;;;;;;;9.77;2.22;;;29.70;65.80;;;;;;5031270;28;20030;-56
2023/07/19 10:29:03;;;;;;;5.55;2.08;;;29.60;65.50;;;;;;5031656;28;20033;-55
2023/07/19 10:31:29;;;;;;;5.03;2.20;;;29.60;65.70;;;;;;5030931;28;20519;-56
2023/07/19 10:33:55;;;;;;;6.50;2.08;;;29.80;66.40;;;;;;5031669;28;20041;-53
2023/07/19 10:36:20;;;;;;;6.53;2.00;;;30.00;66.10;;;;;;5031049;28;20029;-56
2023/07/19 10:38:46;;;;;;;2.90;1.92;;;30.00;65.80;;;;;;5031416;28;20151;-55
2023/07/19 10:41:13;;;;;;;14.48;2.55;;;29.90;66.10;;;;;;5030151;28;20510;-53
2023/07/19 10:43:38;;;;;;;15.85;2.42;;;29.80;66.30;;;;;;5031431;28;20017;-54
2023/07/19 10:46:08;;;;;;;2.92;2.22;;;29.70;66.80;;;;;;5031636;28;20091;-54
2023/07/19 10:48:38;;;;;;;4.50;2.55;;;29.50;66.30;;;;;;5031393;28;20052;-55
2023/07/19 10:51:09;;;;;;;7.22;2.00;;;29.50;66.60;;;;;;5030349;28;20044;-53
2023/07/19 10:53:48;;;;;;;2.80;1.73;;;29.30;66.50;;;;;;5031178;28;20400;-53
2023/07/19 10:56:15;;;;;;;4.60;2.00;;;29.20;66.40;;;;;;5031218;28;20167;-55
2023/07/19 10:58:44;;;;;;;5.85;2.05;;;29.30;67.10;;;;;;5031366;28;20022;-52
2023/07/19 11:01:10;;;;;;;7.80;2.00;;;29.40;66.80;;;;;;5031612;28;20041;-57
2023/07/19 11:03:36;;;;;;;2.72;2.00;;;29.30;67.00;;;;;;5030175;28;20032;-55
2023/07/19 11:06:02;;;;;;;2.90;1.75;;;29.30;67.50;;;;;;5031304;28;20026;-55
2023/07/19 11:08:29;;;;;;;4.07;1.83;;;29.30;67.20;;;;;;5030905;28;20036;-53
2023/07/19 11:10:56;;;;;;;8.85;2.40;;;29.30;68.00;;;;;;5031427;28;20480;-52
2023/07/19 11:13:24;;;;;;;6.05;2.20;;;29.40;67.10;;;;;;5031503;28;20061;-56
2023/07/19 11:15:51;;;;;;;4.38;2.10;;;29.30;67.10;;;;;;5031285;28;20025;-53
2023/07/19 11:18:28;;;;;;;5.22;2.33;;;29.40;68.20;;;;;;5031005;28;20022;-53
2023/07/19 11:20:58;;;;;;;7.22;2.47;;;29.50;68.00;;;;;;5031195;28;20036;-54
2023/07/19 11:23:24;;;;;;;4.70;1.98;;;29.50;67.00;;;;;;5029801;28;20100;-56
2023/07/19 11:25:50;;;;;;;2.83;2.08;;;29.60;66.40;;;;;;5031249;28;20026;-53
2023/07/19 11:28:35;;;;;;;3.03;1.70;;;29.50;66.00;;;;;;5031318;28;20071;-55
2023/07/19 11:31:02;;;;;;;5.45;2.20;;;29.60;66.30;;;;;;5031261;28;20030;-53
2023/07/19 11:33:28;;;;;;;3.72;1.98;;;29.70;66.30;;;;;;5031276;28;20052;-53
2023/07/19 11:35:54;;;;;;;7.18;2.30;;;29.80;66.70;;;;;;5031222;28;20053;-58
2023/07/19 11:38:19;;;;;;;4.95;2.15;;;29.90;67.90;;;;;;5031205;28;20034;-56
2023/07/19 11:40:45;;;;;;;3.33;2.28;;;29.90;66.70;;;;;;5031329;28;20396;-55
2023/07/19 11:43:10;;;;;;;7.25;2.78;;;29.90;66.10;;;;;;5033203;28;20037;-52
2023/07/19 11:45:36;;;;;;;6.93;1.92;;;29.70;66.40;;;;;;5034829;28;20017;-53
2023/07/19 11:48:02;;;;;;;4.85;2.03;;;29.80;67.60;;;;;;5034257;28;20525;-57
2023/07/19 11:50:29;;;;;;;6.82;2.03;;;29.80;67.90;;;;;;5034760;28;20030;-51
2023/07/19 11:53:02;;;;;;;4.00;2.20;;;29.90;67.10;;;;;;5034790;28;20065;-52
2023/07/19 11:55:29;;;;;;;5.40;1.75;;;30.10;66.60;;;;;;5034480;28;20025;-51
2023/07/19 11:58:02;;;;;;;6.50;2.03;;;30.10;64.70;;;;;;5034241;28;20477;-54
2023/07/19 12:00:28;;;;;;;3.20;1.88;;;29.90;65.00;;;;;;5033334;28;20029;-55
2023/07/19 12:02:54;;;;;;;5.05;1.60;;;29.70;65.10;;;;;;5034740;28;20551;-55
2023/07/19 12:05:22;;;;;;;1.80;1.45;;;29.70;65.30;;;;;;5034462;28;20029;-56
2023/07/19 12:07:51;;;;;;;5.45;1.70;;;29.70;65.80;;;;;;5033889;28;20029;-57
2023/07/19 12:10:21;;;;;;;5.40;2.13;;;29.80;65.80;;;;;;5034127;28;20048;-52
2023/07/19 12:12:50;;;;;;;2.80;1.75;;;29.80;65.30;;;;;;5034654;28;20025;-56
2023/07/19 12:15:17;;;;;;;5.13;1.80;;;29.90;66.00;;;;;;5034229;28;20499;-57
2023/07/19 12:17:44;;;;;;;6.70;1.73;;;29.80;65.40;;;;;;5033694;28;20036;-55
2023/07/19 12:20:10;;;;;;;4.00;1.50;;;29.80;65.70;;;;;;5034189;28;20026;-56
2023/07/19 12:22:40;;;;;;;4.30;1.60;;;29.80;65.60;;;;;;5032850;28;20025;-53
2023/07/19 12:25:05;;;;;;;3.97;1.40;;;29.90;66.00;;;;;;5034123;28;20026;-55
2023/07/19 12:27:31;;;;;;;6.13;1.85;;;30.00;65.60;;;;;;5033727;28;20041;-53
2023/07/19 12:29:58;;;;;;;3.75;1.90;;;30.00;65.40;;;;;;5033949;28;20029;-57
2023/07/19 12:32:24;;;;;;;10.88;2.28;;;29.70;66.20;;;;;;5040981;22;20065;-48
2023/07/19 12:34:49;;;;;;;3.05;1.80;;;29.80;66.00;;;;;;5013943;28;20088;-48
2023/07/19 12:37:15;;;;;;;2.58;1.83;;;29.90;65.90;;;;;;5012341;28;20088;-49
2023/07/19 12:39:41;;;;;;;6.63;2.75;;;29.90;66.20;;;;;;5014062;28;20026;-50
2023/07/19 12:42:07;;;;;;;8.80;2.15;;;30.00;65.80;;;;;;5013845;28;20382;-52